sensor_id;sensor_type;location;lat;lon;timestamp;temperature;humidity
3134;DHT22;1577;49.912;10.924;2022-12-18T00:01:58;-9.70;99.90
3134;DHT22;1577;49.912;10.924;2022-12-18T00:04:30;-9.80;99.90
3134;DHT22;1577;49.912;10.924;2022-12-18T00:06:56;-9.80;99.90
3134;DHT22;1577;49.912;10.924;2022-12-18T00:09:24;-10.00;99.90
3134;DHT22;1577;49.912;10.924;2022-12-18T00:11:50;-10.10;99.90
3134;DHT22;1577;49.912;10.924;2022-12-18T00:14:16;-10.10;99.90
3134;DHT22;1577;49.912;10.924;2022-12-18T00:16:44;-10.20;99.90
3134;DHT22;1577;49.912;10.924;2022-12-18T00:19:11;-10.30;99.90
3134;DHT22;1577;49.912;10.924;2022-12-18T00:21:40;-10.40;99.90
3134;DHT22;1577;49.912;10.924;2022-12-18T00:24:06;-10.40;99.90
3134;DHT22;1577;49.912;10.924;2022-12-18T00:26:33;-10.40;99.90
3134;DHT22;1577;49.912;10.924;2022-12-18T00:29:02;-10.30;99.90
3134;DHT22;1577;49.912;10.924;2022-12-18T00:31:28;-10.20;99.90
3134;DHT22;1577;49.912;10.924;2022-12-18T00:33:55;-10.20;99.90
3134;DHT22;1577;49.912;10.924;2022-12-18T00:36:25;-10.10;99.90
3134;DHT22;1577;49.912;10.924;2022-12-18T00:38:52;-10.10;99.90
3134;DHT22;1577;49.912;10.924;2022-12-18T00:41:18;-10.10;99.90
3134;DHT22;1577;49.912;10.924;2022-12-18T00:44:04;-10.10;99.90
3134;DHT22;1577;49.912;10.924;2022-12-18T00:46:33;-10.10;99.90
3134;DHT22;1577;49.912;10.924;2022-12-18T00:48:59;-10.10;99.90
3134;DHT22;1577;49.912;10.924;2022-12-18T00:51:25;-10.10;99.90
3134;DHT22;1577;49.912;10.924;2022-12-18T00:53:51;-10.10;99.90
3134;DHT22;1577;49.912;10.924;2022-12-18T00:56:25;-10.10;99.90
3134;DHT22;1577;49.912;10.924;2022-12-18T00:58:51;-10.10;99.90
3134;DHT22;1577;49.912;10.924;2022-12-18T01:01:17;-10.20;99.90
3134;DHT22;1577;49.912;10.924;2022-12-18T01:03:43;-10.20;99.90
3134;DHT22;1577;49.912;10.924;2022-12-18T01:06:12;-10.10;99.90
3134;DHT22;1577;49.912;10.924;2022-12-18T01:08:38;-10.10;99.90
3134;DHT22;1577;49.912;10.924;2022-12-18T01:11:09;-10.10;99.90
3134;DHT22;1577;49.912;10.924;2022-12-18T01:13:35;-10.20;99.90
3134;DHT22;1577;49.912;10.924;2022-12-18T01:16:01;-10.20;99.90
3134;DHT22;1577;49.912;10.924;2022-12-18T01:18:26;-10.20;99.90
3134;DHT22;1577;49.912;10.924;2022-12-18T01:20:52;-10.20;99.90
3134;DHT22;1577;49.912;10.924;2022-12-18T01:23:20;-10.20;99.90
3134;DHT22;1577;49.912;10.924;2022-12-18T01:25:46;-10.20;99.90
3134;DHT22;1577;49.912;10.924;2022-12-18T01:28:11;-10.30;99.90
3134;DHT22;1577;49.912;10.924;2022-12-18T01:30:40;-10.30;99.90
3134;DHT22;1577;49.912;10.924;2022-12-18T01:33:05;-10.20;99.90
3134;DHT22;1577;49.912;10.924;2022-12-18T01:35:41;-10.20;99.90
3134;DHT22;1577;49.912;10.924;2022-12-18T01:38:07;-10.20;99.90
3134;DHT22;1577;49.912;10.924;2022-12-18T01:40:33;-10.30;99.90
3134;DHT22;1577;49.912;10.924;2022-12-18T01:42:58;-10.30;99.90
3134;DHT22;1577;49.912;10.924;2022-12-18T01:45:28;-10.40;99.90
3134;DHT22;1577;49.912;10.924;2022-12-18T01:48:00;-10.40;99.90
3134;DHT22;1577;49.912;10.924;2022-12-18T01:53:16;-10.50;99.90
3134;DHT22;1577;49.912;10.924;2022-12-18T01:55:56;-10.50;99.90
3134;DHT22;1577;49.912;10.924;2022-12-18T01:58:42;-10.50;99.90
3134;DHT22;1577;49.912;10.924;2022-12-18T02:01:09;-10.40;99.90
3134;DHT22;1577;49.912;10.924;2022-12-18T02:03:34;-10.30;99.90
3134;DHT22;1577;49.912;10.924;2022-12-18T02:06:09;-10.30;99.90
3134;DHT22;1577;49.912;10.924;2022-12-18T02:22:18;-10.40;99.90
3134;DHT22;1577;49.912;10.924;2022-12-18T02:25:10;-10.40;99.90
3134;DHT22;1577;49.912;10.924;2022-12-18T02:27:39;-10.30;99.90
3134;DHT22;1577;49.912;10.924;2022-12-18T02:30:06;-10.30;99.90
3134;DHT22;1577;49.912;10.924;2022-12-18T02:32:39;-10.30;99.90
3134;DHT22;1577;49.912;10.924;2022-12-18T02:35:12;-10.30;99.90
3134;DHT22;1577;49.912;10.924;2022-12-18T02:37:40;-10.40;99.90
3134;DHT22;1577;49.912;10.924;2022-12-18T02:40:08;-10.20;99.90
3134;DHT22;1577;49.912;10.924;2022-12-18T02:42:34;-10.20;99.90
3134;DHT22;1577;49.912;10.924;2022-12-18T02:45:00;-10.30;99.90
3134;DHT22;1577;49.912;10.924;2022-12-18T02:47:34;-10.40;99.90
3134;DHT22;1577;49.912;10.924;2022-12-18T02:52:56;-10.40;99.90
3134;DHT22;1577;49.912;10.924;2022-12-18T03:04:06;-10.60;99.90
3134;DHT22;1577;49.912;10.924;2022-12-18T03:06:12;-10.50;99.90
3134;DHT22;1577;49.912;10.924;2022-12-18T03:08:43;-10.40;99.90
3134;DHT22;1577;49.912;10.924;2022-12-18T03:11:13;-10.50;99.90
3134;DHT22;1577;49.912;10.924;2022-12-18T03:13:54;-10.60;99.90
3134;DHT22;1577;49.912;10.924;2022-12-18T03:16:28;-10.70;99.90
3134;DHT22;1577;49.912;10.924;2022-12-18T03:19:24;-10.70;99.90
3134;DHT22;1577;49.912;10.924;2022-12-18T03:21:55;-10.70;99.90
3134;DHT22;1577;49.912;10.924;2022-12-18T03:24:22;-10.70;99.90
3134;DHT22;1577;49.912;10.924;2022-12-18T03:26:53;-10.80;99.90
3134;DHT22;1577;49.912;10.924;2022-12-18T03:29:33;-10.80;99.90
3134;DHT22;1577;49.912;10.924;2022-12-18T03:32:26;-10.90;99.90
3134;DHT22;1577;49.912;10.924;2022-12-18T03:34:56;-10.90;99.90
3134;DHT22;1577;49.912;10.924;2022-12-18T03:37:25;-10.90;99.90
3134;DHT22;1577;49.912;10.924;2022-12-18T03:39:51;-11.00;99.90
3134;DHT22;1577;49.912;10.924;2022-12-18T03:42:32;-10.90;99.90
3134;DHT22;1577;49.912;10.924;2022-12-18T03:45:09;-11.00;99.90
3134;DHT22;1577;49.912;10.924;2022-12-18T03:48:00;-11.00;99.90
3134;DHT22;1577;49.912;10.924;2022-12-18T03:50:51;-11.00;99.90
3134;DHT22;1577;49.912;10.924;2022-12-18T03:53:58;-11.10;99.90
3134;DHT22;1577;49.912;10.924;2022-12-18T03:56:28;-11.10;99.90
3134;DHT22;1577;49.912;10.924;2022-12-18T03:58:55;-11.20;99.90
3134;DHT22;1577;49.912;10.924;2022-12-18T04:01:31;-11.20;99.90
3134;DHT22;1577;49.912;10.924;2022-12-18T04:04:00;-11.30;99.90
3134;DHT22;1577;49.912;10.924;2022-12-18T04:06:29;-11.30;99.90
3134;DHT22;1577;49.912;10.924;2022-12-18T04:08:57;-11.40;99.90
3134;DHT22;1577;49.912;10.924;2022-12-18T04:11:23;-11.40;99.90
3134;DHT22;1577;49.912;10.924;2022-12-18T04:13:55;-11.40;99.90
3134;DHT22;1577;49.912;10.924;2022-12-18T04:16:26;-11.40;99.90
3134;DHT22;1577;49.912;10.924;2022-12-18T04:18:52;-11.40;99.90
3134;DHT22;1577;49.912;10.924;2022-12-18T04:21:19;-11.40;99.90
3134;DHT22;1577;49.912;10.924;2022-12-18T04:23:44;-11.40;99.90
3134;DHT22;1577;49.912;10.924;2022-12-18T04:26:10;-11.40;99.90
3134;DHT22;1577;49.912;10.924;2022-12-18T04:28:39;-11.40;99.90
3134;DHT22;1577;49.912;10.924;2022-12-18T04:31:05;-11.30;99.90
3134;DHT22;1577;49.912;10.924;2022-12-18T04:33:30;-11.30;99.90
3134;DHT22;1577;49.912;10.924;2022-12-18T04:35:56;-11.20;99.90
3134;DHT22;1577;49.912;10.924;2022-12-18T04:38:24;-11.30;99.90
3134;DHT22;1577;49.912;10.924;2022-12-18T04:40:50;-11.30;99.90
3134;DHT22;1577;49.912;10.924;2022-12-18T04:43:16;-11.30;99.90
3134;DHT22;1577;49.912;10.924;2022-12-18T04:45:42;-11.40;99.90
3134;DHT22;1577;49.912;10.924;2022-12-18T04:48:08;-11.40;99.90
3134;DHT22;1577;49.912;10.924;2022-12-18T04:50:33;-11.40;99.90
3134;DHT22;1577;49.912;10.924;2022-12-18T04:52:59;-11.40;99.90
3134;DHT22;1577;49.912;10.924;2022-12-18T04:55:25;-11.40;99.90
3134;DHT22;1577;49.912;10.924;2022-12-18T04:57:51;-11.30;99.90
3134;DHT22;1577;49.912;10.924;2022-12-18T05:00:17;-11.20;99.90
3134;DHT22;1577;49.912;10.924;2022-12-18T05:02:43;-11.20;99.90
3134;DHT22;1577;49.912;10.924;2022-12-18T05:05:09;-11.20;99.90
3134;DHT22;1577;49.912;10.924;2022-12-18T05:07:35;-11.10;99.90
3134;DHT22;1577;49.912;10.924;2022-12-18T05:10:01;-11.10;99.90
3134;DHT22;1577;49.912;10.924;2022-12-18T05:12:31;-11.00;99.90
3134;DHT22;1577;49.912;10.924;2022-12-18T05:14:57;-11.00;99.90
3134;DHT22;1577;49.912;10.924;2022-12-18T05:17:26;-10.90;99.90
3134;DHT22;1577;49.912;10.924;2022-12-18T05:19:51;-10.90;99.90
3134;DHT22;1577;49.912;10.924;2022-12-18T05:22:17;-10.90;99.90
3134;DHT22;1577;49.912;10.924;2022-12-18T05:24:42;-10.90;99.90
3134;DHT22;1577;49.912;10.924;2022-12-18T05:27:08;-10.90;99.90
3134;DHT22;1577;49.912;10.924;2022-12-18T05:29:34;-10.90;99.90
3134;DHT22;1577;49.912;10.924;2022-12-18T05:32:02;-11.00;99.90
3134;DHT22;1577;49.912;10.924;2022-12-18T05:34:28;-11.00;99.90
3134;DHT22;1577;49.912;10.924;2022-12-18T05:36:54;-11.00;99.90
3134;DHT22;1577;49.912;10.924;2022-12-18T05:39:19;-11.00;99.90
3134;DHT22;1577;49.912;10.924;2022-12-18T05:41:45;-11.00;99.90
3134;DHT22;1577;49.912;10.924;2022-12-18T05:44:20;-11.00;99.90
3134;DHT22;1577;49.912;10.924;2022-12-18T05:46:46;-11.10;99.90
3134;DHT22;1577;49.912;10.924;2022-12-18T05:49:11;-11.10;99.90
3134;DHT22;1577;49.912;10.924;2022-12-18T05:51:37;-11.30;99.90
3134;DHT22;1577;49.912;10.924;2022-12-18T05:54:03;-11.30;99.90
3134;DHT22;1577;49.912;10.924;2022-12-18T05:56:28;-11.40;99.90
3134;DHT22;1577;49.912;10.924;2022-12-18T05:58:54;-11.30;99.90
3134;DHT22;1577;49.912;10.924;2022-12-18T06:01:23;-11.40;99.90
3134;DHT22;1577;49.912;10.924;2022-12-18T06:03:49;-11.40;99.90
3134;DHT22;1577;49.912;10.924;2022-12-18T06:06:21;-11.30;99.90
3134;DHT22;1577;49.912;10.924;2022-12-18T06:08:48;-11.40;99.90
3134;DHT22;1577;49.912;10.924;2022-12-18T06:11:17;-11.40;99.90
3134;DHT22;1577;49.912;10.924;2022-12-18T06:13:43;-11.40;99.90
3134;DHT22;1577;49.912;10.924;2022-12-18T06:16:09;-11.40;99.90
3134;DHT22;1577;49.912;10.924;2022-12-18T06:18:37;-11.40;99.90
3134;DHT22;1577;49.912;10.924;2022-12-18T06:21:03;-11.50;99.90
3134;DHT22;1577;49.912;10.924;2022-12-18T06:23:28;-11.50;99.90
3134;DHT22;1577;49.912;10.924;2022-12-18T06:25:54;-11.50;99.90
3134;DHT22;1577;49.912;10.924;2022-12-18T06:28:20;-11.60;99.90
3134;DHT22;1577;49.912;10.924;2022-12-18T06:30:49;-11.70;99.90
3134;DHT22;1577;49.912;10.924;2022-12-18T06:33:15;-11.80;99.90
3134;DHT22;1577;49.912;10.924;2022-12-18T06:35:41;-11.90;99.90
3134;DHT22;1577;49.912;10.924;2022-12-18T06:38:07;-11.80;99.90
3134;DHT22;1577;49.912;10.924;2022-12-18T06:40:33;-11.70;99.90
3134;DHT22;1577;49.912;10.924;2022-12-18T06:42:59;-11.70;99.90
3134;DHT22;1577;49.912;10.924;2022-12-18T06:45:25;-11.70;99.90
3134;DHT22;1577;49.912;10.924;2022-12-18T06:47:51;-11.80;99.90
3134;DHT22;1577;49.912;10.924;2022-12-18T06:50:17;-11.70;99.90
3134;DHT22;1577;49.912;10.924;2022-12-18T06:52:42;-11.80;99.90
3134;DHT22;1577;49.912;10.924;2022-12-18T06:55:10;-11.80;99.90
3134;DHT22;1577;49.912;10.924;2022-12-18T06:57:37;-11.80;99.90
3134;DHT22;1577;49.912;10.924;2022-12-18T07:00:03;-11.90;99.90
3134;DHT22;1577;49.912;10.924;2022-12-18T07:02:29;-11.80;99.90
3134;DHT22;1577;49.912;10.924;2022-12-18T07:04:55;-11.80;99.90
3134;DHT22;1577;49.912;10.924;2022-12-18T07:07:21;-11.80;99.90
3134;DHT22;1577;49.912;10.924;2022-12-18T07:09:46;-11.90;99.90
3134;DHT22;1577;49.912;10.924;2022-12-18T07:12:12;-11.90;99.90
3134;DHT22;1577;49.912;10.924;2022-12-18T07:14:37;-11.90;99.90
3134;DHT22;1577;49.912;10.924;2022-12-18T07:17:03;-11.80;99.90
3134;DHT22;1577;49.912;10.924;2022-12-18T07:19:29;-11.80;99.90
3134;DHT22;1577;49.912;10.924;2022-12-18T07:21:55;-11.80;99.90
3134;DHT22;1577;49.912;10.924;2022-12-18T07:24:20;-11.80;99.90
3134;DHT22;1577;49.912;10.924;2022-12-18T07:26:46;-11.70;99.90
3134;DHT22;1577;49.912;10.924;2022-12-18T07:29:13;-11.70;99.90
3134;DHT22;1577;49.912;10.924;2022-12-18T07:31:39;-11.60;99.90
3134;DHT22;1577;49.912;10.924;2022-12-18T07:34:05;-11.60;99.90
3134;DHT22;1577;49.912;10.924;2022-12-18T07:36:30;-11.60;99.90
3134;DHT22;1577;49.912;10.924;2022-12-18T07:38:56;-11.60;99.90
3134;DHT22;1577;49.912;10.924;2022-12-18T07:41:21;-11.60;99.90
3134;DHT22;1577;49.912;10.924;2022-12-18T07:43:48;-11.60;99.90
3134;DHT22;1577;49.912;10.924;2022-12-18T07:46:16;-11.60;99.90
3134;DHT22;1577;49.912;10.924;2022-12-18T07:48:42;-11.50;99.90
3134;DHT22;1577;49.912;10.924;2022-12-18T07:51:08;-11.50;99.90
3134;DHT22;1577;49.912;10.924;2022-12-18T07:53:35;-11.50;99.90
3134;DHT22;1577;49.912;10.924;2022-12-18T07:56:04;-11.50;99.90
3134;DHT22;1577;49.912;10.924;2022-12-18T07:58:30;-11.40;99.90
3134;DHT22;1577;49.912;10.924;2022-12-18T08:01:08;-11.40;99.90
3134;DHT22;1577;49.912;10.924;2022-12-18T08:03:34;-11.40;99.90
3134;DHT22;1577;49.912;10.924;2022-12-18T08:06:01;-11.40;99.90
3134;DHT22;1577;49.912;10.924;2022-12-18T08:08:28;-11.40;99.90
3134;DHT22;1577;49.912;10.924;2022-12-18T08:10:53;-11.30;99.90
3134;DHT22;1577;49.912;10.924;2022-12-18T08:13:19;-11.30;99.90
3134;DHT22;1577;49.912;10.924;2022-12-18T08:15:44;-11.10;99.90
3134;DHT22;1577;49.912;10.924;2022-12-18T08:18:10;-11.00;99.90
3134;DHT22;1577;49.912;10.924;2022-12-18T08:20:36;-11.00;99.90
3134;DHT22;1577;49.912;10.924;2022-12-18T08:23:01;-10.90;99.90
3134;DHT22;1577;49.912;10.924;2022-12-18T08:25:27;-10.80;99.90
3134;DHT22;1577;49.912;10.924;2022-12-18T08:27:53;-10.70;99.90
3134;DHT22;1577;49.912;10.924;2022-12-18T08:30:19;-10.50;99.90
3134;DHT22;1577;49.912;10.924;2022-12-18T08:32:44;-10.20;99.90
3134;DHT22;1577;49.912;10.924;2022-12-18T08:35:10;-9.80;99.90
3134;DHT22;1577;49.912;10.924;2022-12-18T08:37:40;-9.20;99.90
3134;DHT22;1577;49.912;10.924;2022-12-18T08:40:06;-8.70;99.90
3134;DHT22;1577;49.912;10.924;2022-12-18T08:42:32;-8.20;99.90
3134;DHT22;1577;49.912;10.924;2022-12-18T08:45:16;-7.80;99.90
3134;DHT22;1577;49.912;10.924;2022-12-18T08:47:42;-7.30;99.90
3134;DHT22;1577;49.912;10.924;2022-12-18T08:50:09;-7.00;99.90
3134;DHT22;1577;49.912;10.924;2022-12-18T08:52:35;-6.80;99.90
3134;DHT22;1577;49.912;10.924;2022-12-18T08:55:00;-6.60;99.90
3134;DHT22;1577;49.912;10.924;2022-12-18T08:57:26;-6.60;99.90
3134;DHT22;1577;49.912;10.924;2022-12-18T08:59:52;-6.50;99.90
3134;DHT22;1577;49.912;10.924;2022-12-18T09:02:17;-6.40;99.90
3134;DHT22;1577;49.912;10.924;2022-12-18T09:04:43;-6.30;99.90
3134;DHT22;1577;49.912;10.924;2022-12-18T09:07:08;-6.20;99.90
3134;DHT22;1577;49.912;10.924;2022-12-18T09:09:34;-6.10;99.90
3134;DHT22;1577;49.912;10.924;2022-12-18T09:12:00;-6.10;99.90
3134;DHT22;1577;49.912;10.924;2022-12-18T09:14:26;-6.00;99.90
3134;DHT22;1577;49.912;10.924;2022-12-18T09:16:52;-5.90;99.90
3134;DHT22;1577;49.912;10.924;2022-12-18T09:19:17;-5.90;99.90
3134;DHT22;1577;49.912;10.924;2022-12-18T09:21:43;-5.90;99.90
3134;DHT22;1577;49.912;10.924;2022-12-18T09:24:12;-5.90;99.90
3134;DHT22;1577;49.912;10.924;2022-12-18T09:26:38;-5.80;99.90
3134;DHT22;1577;49.912;10.924;2022-12-18T09:29:04;-5.80;99.90
3134;DHT22;1577;49.912;10.924;2022-12-18T09:31:32;-5.90;99.90
3134;DHT22;1577;49.912;10.924;2022-12-18T09:33:58;-6.00;99.90
3134;DHT22;1577;49.912;10.924;2022-12-18T09:36:24;-6.20;99.90
3134;DHT22;1577;49.912;10.924;2022-12-18T09:38:50;-6.30;99.90
3134;DHT22;1577;49.912;10.924;2022-12-18T09:41:39;-6.40;99.90
3134;DHT22;1577;49.912;10.924;2022-12-18T09:47:16;-6.70;99.90
3134;DHT22;1577;49.912;10.924;2022-12-18T09:49:45;-6.80;99.90
3134;DHT22;1577;49.912;10.924;2022-12-18T09:52:17;-6.80;99.90
3134;DHT22;1577;49.912;10.924;2022-12-18T09:54:52;-6.80;99.90
3134;DHT22;1577;49.912;10.924;2022-12-18T09:57:21;-6.80;99.90
3134;DHT22;1577;49.912;10.924;2022-12-18T09:59:55;-6.80;99.90
3134;DHT22;1577;49.912;10.924;2022-12-18T10:02:24;-6.80;99.90
3134;DHT22;1577;49.912;10.924;2022-12-18T10:10:25;-6.70;99.90
3134;DHT22;1577;49.912;10.924;2022-12-18T10:14:17;-6.70;99.90
3134;DHT22;1577;49.912;10.924;2022-12-18T10:16:21;-6.70;99.90
3134;DHT22;1577;49.912;10.924;2022-12-18T10:21:37;-6.60;99.90
3134;DHT22;1577;49.912;10.924;2022-12-18T10:24:33;-6.50;99.90
3134;DHT22;1577;49.912;10.924;2022-12-18T10:27:14;-6.60;99.90
3134;DHT22;1577;49.912;10.924;2022-12-18T10:29:43;-6.60;99.90
3134;DHT22;1577;49.912;10.924;2022-12-18T10:32:27;-6.60;99.90
3134;DHT22;1577;49.912;10.924;2022-12-18T10:34:56;-6.70;99.90
3134;DHT22;1577;49.912;10.924;2022-12-18T10:37:25;-6.50;99.90
3134;DHT22;1577;49.912;10.924;2022-12-18T10:40:14;-6.50;99.90
3134;DHT22;1577;49.912;10.924;2022-12-18T10:42:41;-6.40;99.90
3134;DHT22;1577;49.912;10.924;2022-12-18T10:45:15;-6.50;99.90
3134;DHT22;1577;49.912;10.924;2022-12-18T10:47:50;-6.40;99.90
3134;DHT22;1577;49.912;10.924;2022-12-18T10:52:54;-6.30;99.90
3134;DHT22;1577;49.912;10.924;2022-12-18T10:55:21;-6.20;99.90
3134;DHT22;1577;49.912;10.924;2022-12-18T10:57:46;-6.10;99.90
3134;DHT22;1577;49.912;10.924;2022-12-18T11:02:47;-6.00;99.90
3134;DHT22;1577;49.912;10.924;2022-12-18T11:05:42;-6.00;99.90
3134;DHT22;1577;49.912;10.924;2022-12-18T11:08:20;-5.90;99.90
3134;DHT22;1577;49.912;10.924;2022-12-18T11:10:48;-5.70;99.90
3134;DHT22;1577;49.912;10.924;2022-12-18T11:13:19;-5.60;99.90
3134;DHT22;1577;49.912;10.924;2022-12-18T11:15:46;-5.50;99.90
3134;DHT22;1577;49.912;10.924;2022-12-18T11:18:35;-5.50;99.90
3134;DHT22;1577;49.912;10.924;2022-12-18T11:21:09;-5.50;99.90
3134;DHT22;1577;49.912;10.924;2022-12-18T11:23:37;-5.40;99.90
3134;DHT22;1577;49.912;10.924;2022-12-18T11:26:08;-5.40;99.90
3134;DHT22;1577;49.912;10.924;2022-12-18T11:28:38;-5.30;99.90
3134;DHT22;1577;49.912;10.924;2022-12-18T11:31:22;-5.20;99.90
3134;DHT22;1577;49.912;10.924;2022-12-18T11:33:59;-5.10;99.90
3134;DHT22;1577;49.912;10.924;2022-12-18T11:36:29;-5.00;99.90
3134;DHT22;1577;49.912;10.924;2022-12-18T11:39:00;-5.00;99.90
3134;DHT22;1577;49.912;10.924;2022-12-18T11:41:56;-5.00;99.90
3134;DHT22;1577;49.912;10.924;2022-12-18T11:44:57;-5.00;99.90
3134;DHT22;1577;49.912;10.924;2022-12-18T11:48:28;-4.90;99.90
3134;DHT22;1577;49.912;10.924;2022-12-18T11:50:45;-4.80;99.90
3134;DHT22;1577;49.912;10.924;2022-12-18T11:53:12;-4.70;99.90
3134;DHT22;1577;49.912;10.924;2022-12-18T11:58:45;-4.60;99.90
3134;DHT22;1577;49.912;10.924;2022-12-18T12:07:21;-4.40;99.90
3134;DHT22;1577;49.912;10.924;2022-12-18T12:10:07;-4.40;99.90
3134;DHT22;1577;49.912;10.924;2022-12-18T12:21:34;-4.10;99.90
3134;DHT22;1577;49.912;10.924;2022-12-18T12:24:26;-4.20;99.90
3134;DHT22;1577;49.912;10.924;2022-12-18T12:32:49;-4.10;99.90
3134;DHT22;1577;49.912;10.924;2022-12-18T12:38:05;-4.00;99.90
3134;DHT22;1577;49.912;10.924;2022-12-18T12:40:37;-4.00;99.90
3134;DHT22;1577;49.912;10.924;2022-12-18T12:46:03;-3.90;99.90
3134;DHT22;1577;49.912;10.924;2022-12-18T12:48:34;-4.00;99.90
3134;DHT22;1577;49.912;10.924;2022-12-18T12:51:07;-3.90;99.90
3134;DHT22;1577;49.912;10.924;2022-12-18T12:53:36;-3.80;99.90
3134;DHT22;1577;49.912;10.924;2022-12-18T12:56:03;-3.70;99.90
3134;DHT22;1577;49.912;10.924;2022-12-18T12:58:49;-3.50;99.90
3134;DHT22;1577;49.912;10.924;2022-12-18T13:01:22;-3.50;99.90
3134;DHT22;1577;49.912;10.924;2022-12-18T13:04:01;-3.50;99.90
3134;DHT22;1577;49.912;10.924;2022-12-18T13:07:19;-3.50;99.90
3134;DHT22;1577;49.912;10.924;2022-12-18T13:13:06;-3.40;99.90
3134;DHT22;1577;49.912;10.924;2022-12-18T13:15:46;-3.40;99.90
3134;DHT22;1577;49.912;10.924;2022-12-18T13:18:22;-3.30;99.90
3134;DHT22;1577;49.912;10.924;2022-12-18T13:25:56;-3.20;99.90
3134;DHT22;1577;49.912;10.924;2022-12-18T13:31:06;-3.20;99.90
3134;DHT22;1577;49.912;10.924;2022-12-18T13:33:36;-3.30;99.90
3134;DHT22;1577;49.912;10.924;2022-12-18T13:36:30;-3.30;99.90
3134;DHT22;1577;49.912;10.924;2022-12-18T13:39:11;-3.20;99.90
3134;DHT22;1577;49.912;10.924;2022-12-18T13:41:37;-3.10;99.90
3134;DHT22;1577;49.912;10.924;2022-12-18T13:46:51;-3.20;99.90
3134;DHT22;1577;49.912;10.924;2022-12-18T13:49:21;-3.20;99.90
3134;DHT22;1577;49.912;10.924;2022-12-18T13:51:49;-3.20;99.90
3134;DHT22;1577;49.912;10.924;2022-12-18T13:54:39;-3.30;99.90
3134;DHT22;1577;49.912;10.924;2022-12-18T13:57:24;-3.20;99.90
3134;DHT22;1577;49.912;10.924;2022-12-18T13:59:50;-3.20;99.90
3134;DHT22;1577;49.912;10.924;2022-12-18T14:02:30;-3.20;99.90
3134;DHT22;1577;49.912;10.924;2022-12-18T14:04:56;-3.20;99.90
3134;DHT22;1577;49.912;10.924;2022-12-18T14:07:24;-3.10;99.90
3134;DHT22;1577;49.912;10.924;2022-12-18T14:09:53;-3.20;99.90
3134;DHT22;1577;49.912;10.924;2022-12-18T14:12:28;-3.30;99.90
3134;DHT22;1577;49.912;10.924;2022-12-18T14:20:47;-3.40;99.90
3134;DHT22;1577;49.912;10.924;2022-12-18T14:23:34;-3.40;99.90
3134;DHT22;1577;49.912;10.924;2022-12-18T14:26:22;-3.40;99.90
3134;DHT22;1577;49.912;10.924;2022-12-18T14:28:47;-3.50;99.90
3134;DHT22;1577;49.912;10.924;2022-12-18T14:31:24;-3.40;99.90
3134;DHT22;1577;49.912;10.924;2022-12-18T14:33:51;-3.50;99.90
3134;DHT22;1577;49.912;10.924;2022-12-18T14:36:26;-3.50;99.90
3134;DHT22;1577;49.912;10.924;2022-12-18T14:38:54;-3.60;99.90
3134;DHT22;1577;49.912;10.924;2022-12-18T14:41:21;-3.60;99.90
3134;DHT22;1577;49.912;10.924;2022-12-18T14:43:49;-3.70;99.90
3134;DHT22;1577;49.912;10.924;2022-12-18T14:49:32;-3.90;99.90
3134;DHT22;1577;49.912;10.924;2022-12-18T14:52:00;-4.00;99.90
3134;DHT22;1577;49.912;10.924;2022-12-18T14:54:27;-4.10;99.90
3134;DHT22;1577;49.912;10.924;2022-12-18T14:57:05;-4.10;99.90
3134;DHT22;1577;49.912;10.924;2022-12-18T14:59:31;-4.10;99.90
3134;DHT22;1577;49.912;10.924;2022-12-18T15:04:36;-4.00;99.90
3134;DHT22;1577;49.912;10.924;2022-12-18T15:07:20;-4.00;99.90
3134;DHT22;1577;49.912;10.924;2022-12-18T15:12:35;-4.10;99.90
3134;DHT22;1577;49.912;10.924;2022-12-18T15:15:02;-4.20;99.90
3134;DHT22;1577;49.912;10.924;2022-12-18T15:17:28;-4.30;99.90
3134;DHT22;1577;49.912;10.924;2022-12-18T15:20:00;-4.30;99.90
3134;DHT22;1577;49.912;10.924;2022-12-18T15:22:27;-4.30;99.90
3134;DHT22;1577;49.912;10.924;2022-12-18T15:24:55;-4.40;99.90
3134;DHT22;1577;49.912;10.924;2022-12-18T15:32:36;-4.50;99.90
3134;DHT22;1577;49.912;10.924;2022-12-18T15:37:34;-4.60;99.90
3134;DHT22;1577;49.912;10.924;2022-12-18T15:40:00;-4.60;99.90
3134;DHT22;1577;49.912;10.924;2022-12-18T15:42:27;-4.60;99.90
3134;DHT22;1577;49.912;10.924;2022-12-18T15:45:12;-4.60;99.90
3134;DHT22;1577;49.912;10.924;2022-12-18T15:47:38;-4.60;99.90
3134;DHT22;1577;49.912;10.924;2022-12-18T15:50:05;-4.60;99.90
3134;DHT22;1577;49.912;10.924;2022-12-18T15:52:41;-4.60;99.90
3134;DHT22;1577;49.912;10.924;2022-12-18T15:55:15;-4.50;99.90
3134;DHT22;1577;49.912;10.924;2022-12-18T15:58:00;-4.60;99.90
3134;DHT22;1577;49.912;10.924;2022-12-18T16:00:26;-4.60;99.90
3134;DHT22;1577;49.912;10.924;2022-12-18T16:02:52;-4.60;99.90
3134;DHT22;1577;49.912;10.924;2022-12-18T16:05:19;-4.60;99.90
3134;DHT22;1577;49.912;10.924;2022-12-18T16:07:48;-4.60;99.90
3134;DHT22;1577;49.912;10.924;2022-12-18T16:10:14;-4.70;99.90
3134;DHT22;1577;49.912;10.924;2022-12-18T16:12:40;-4.70;99.90
3134;DHT22;1577;49.912;10.924;2022-12-18T16:15:07;-4.70;99.90
3134;DHT22;1577;49.912;10.924;2022-12-18T16:17:36;-4.70;99.90
3134;DHT22;1577;49.912;10.924;2022-12-18T16:20:02;-4.70;99.90
3134;DHT22;1577;49.912;10.924;2022-12-18T16:22:30;-4.70;99.90
3134;DHT22;1577;49.912;10.924;2022-12-18T16:24:58;-4.70;99.90
3134;DHT22;1577;49.912;10.924;2022-12-18T16:27:25;-4.70;99.90
3134;DHT22;1577;49.912;10.924;2022-12-18T16:29:50;-4.70;99.90
3134;DHT22;1577;49.912;10.924;2022-12-18T16:32:18;-4.70;99.90
3134;DHT22;1577;49.912;10.924;2022-12-18T16:34:45;-4.70;99.90
3134;DHT22;1577;49.912;10.924;2022-12-18T16:37:13;-4.70;99.90
3134;DHT22;1577;49.912;10.924;2022-12-18T16:39:39;-4.70;99.90
3134;DHT22;1577;49.912;10.924;2022-12-18T16:42:16;-4.70;99.90
3134;DHT22;1577;49.912;10.924;2022-12-18T16:44:44;-4.80;99.90
3134;DHT22;1577;49.912;10.924;2022-12-18T16:47:11;-4.80;99.90
3134;DHT22;1577;49.912;10.924;2022-12-18T16:49:37;-4.80;99.90
3134;DHT22;1577;49.912;10.924;2022-12-18T16:52:04;-4.80;99.90
3134;DHT22;1577;49.912;10.924;2022-12-18T16:54:30;-4.80;99.90
3134;DHT22;1577;49.912;10.924;2022-12-18T16:56:58;-4.80;99.90
3134;DHT22;1577;49.912;10.924;2022-12-18T16:59:25;-4.70;99.90
3134;DHT22;1577;49.912;10.924;2022-12-18T17:01:51;-4.60;99.90
3134;DHT22;1577;49.912;10.924;2022-12-18T17:04:17;-4.70;99.90
3134;DHT22;1577;49.912;10.924;2022-12-18T17:06:44;-4.70;99.90
3134;DHT22;1577;49.912;10.924;2022-12-18T17:09:20;-4.70;99.90
3134;DHT22;1577;49.912;10.924;2022-12-18T17:11:55;-4.70;99.90
3134;DHT22;1577;49.912;10.924;2022-12-18T17:14:22;-4.60;99.90
3134;DHT22;1577;49.912;10.924;2022-12-18T17:16:48;-4.70;99.90
3134;DHT22;1577;49.912;10.924;2022-12-18T17:19:14;-4.70;99.90
3134;DHT22;1577;49.912;10.924;2022-12-18T17:21:42;-4.70;99.90
3134;DHT22;1577;49.912;10.924;2022-12-18T17:24:08;-4.70;99.90
3134;DHT22;1577;49.912;10.924;2022-12-18T17:26:35;-4.60;99.90
3134;DHT22;1577;49.912;10.924;2022-12-18T17:29:00;-4.60;99.90
3134;DHT22;1577;49.912;10.924;2022-12-18T17:31:28;-4.60;99.90
3134;DHT22;1577;49.912;10.924;2022-12-18T17:33:54;-4.60;99.90
3134;DHT22;1577;49.912;10.924;2022-12-18T17:36:21;-4.60;99.90
3134;DHT22;1577;49.912;10.924;2022-12-18T17:38:53;-4.60;99.90
3134;DHT22;1577;49.912;10.924;2022-12-18T17:41:19;-4.60;99.90
3134;DHT22;1577;49.912;10.924;2022-12-18T17:43:54;-4.70;99.90
3134;DHT22;1577;49.912;10.924;2022-12-18T17:46:20;-4.70;99.90